Mattituck, NY (11952)

5:21 AM EDT on March 31, 2015 (GMT -0400)
Mattituck | | Change Station
CLOSE
Current Station
Personal Weather Station
Location: Mattituck, NY
Elevation: 56 ft
Nearby Weather Stations

Elev 56 ft 41.01 °N, 72.53 °W | Updated 3 seconds ago

Clear
Clear
36.5 °F
Feels Like 31 °F
N
7.6
Wind Variable Wind from West
Gusts 9.4 mph

Today
High -- | Low -- °F
--% Chance of Precip.
Yesterday
High -- | Low -- °F
Precip. -- in
6:35 AM 7:13 PM
Waxing Gibbous, 85% visible
Pressure 29.83 in
Visibility 10.0 miles
Clouds Clear
Windchill 31 °F
Dew Point 28 °F
Humidity 72%
Rainfall 0.00 in
Snow Depth Not available.
UV 0 out of 12
Pollen 6.70 out of 12
Air Quality Not available.
Flu Activity Not available.
METAR KFOK 310853Z 27007KT 10SM CLR 02/M03 A2983 RMK AO2 SLP100 T00221028 56003

More Conditions Fewer Conditions

Pressure 29.83 in
Visibility 10.0 miles
Clouds Clear
Windchill 31 °F
Dew Point 28 °F
Humidity 72%
Rainfall 0.00 in
Snow Depth Not available.
UV 0 out of 12
Pollen 6.70 out of 12
Air Quality Not available.
Flu Activity Not available.
METAR KFOK 310853Z 27007KT 10SM CLR 02/M03 A2983 RMK AO2 SLP100 T00221028 56003

More Conditions Fewer Conditions

10-Day Weather Forecast

Almanac

Astronomy

Mar. 31, 2015 Rise Set
Actual Time
Civil Twilight
Nautical Twilight
Astronomical Twilight
Moon
Length of Visible Light
Length of Day
Tomorrow will be .
, % of the Moon is Illuminated

Today's Extremes

State Highs State Lows

Community

WunderPhotos

Upload Photos

1,809,733 photos uploaded!

WunderBlogs® & News

Nearby

Air Quality

  Air Quality AQ Index Pollutant
Not available.

Snow Depth

Station Depth Elevation

Earthquake Activity

City Distance Mag. Time & Date
Minimum magnitude displayed is 2.5.

Coastal Water Temperatures

Place Temperature

Stations

Nearby Weather Stations

Station Location Temp. Windchill Dew Point Humidity Wind Precip. Elev Updated Type